sensor_id;sensor_type;location;lat;lon;timestamp;pressure;altitude;pressure_sealevel;temperature;humidity
60715;BME280;46564;53.096;8.246;2022-11-06T00:01:31;101219.47;;;8.69;83.54
60715;BME280;46564;53.096;8.246;2022-11-06T00:06:32;101215.03;;;8.66;83.43
60715;BME280;46564;53.096;8.246;2022-11-06T00:11:49;101221.16;;;8.66;83.39
60715;BME280;46564;53.096;8.246;2022-11-06T00:16:51;101219.38;;;8.65;83.07
60715;BME280;46564;53.096;8.246;2022-11-06T00:21:52;101196.72;;;8.64;83.15
60715;BME280;46564;53.096;8.246;2022-11-06T00:26:54;101187.78;;;8.56;83.32
60715;BME280;46564;53.096;8.246;2022-11-06T00:31:55;101196.19;;;8.47;83.07
60715;BME280;46564;53.096;8.246;2022-11-06T00:36:57;101195.31;;;8.47;83.31
60715;BME280;46564;53.096;8.246;2022-11-06T00:41:58;101186.53;;;8.45;83.46
60715;BME280;46564;53.096;8.246;2022-11-06T00:47:00;101184.59;;;8.39;83.53
60715;BME280;46564;53.096;8.246;2022-11-06T00:52:01;101187.09;;;8.36;83.54
60715;BME280;46564;53.096;8.246;2022-11-06T00:57:03;101181.94;;;8.38;83.83
60715;BME280;46564;53.096;8.246;2022-11-06T01:02:04;101179.44;;;8.41;83.75
60715;BME280;46564;53.096;8.246;2022-11-06T01:07:06;101184.81;;;8.45;83.79
60715;BME280;46564;53.096;8.246;2022-11-06T01:12:07;101185.88;;;8.52;83.83
60715;BME280;46564;53.096;8.246;2022-11-06T01:17:14;101181.63;;;8.54;83.29
60715;BME280;46564;53.096;8.246;2022-11-06T01:22:16;101169.44;;;8.55;83.67
60715;BME280;46564;53.096;8.246;2022-11-06T01:27:17;101154.75;;;8.58;83.68
60715;BME280;46564;53.096;8.246;2022-11-06T01:32:27;101169.63;;;8.61;83.38
60715;BME280;46564;53.096;8.246;2022-11-06T01:37:29;101154.94;;;8.64;83.51
60715;BME280;46564;53.096;8.246;2022-11-06T01:42:30;101152.28;;;8.63;83.20
60715;BME280;46564;53.096;8.246;2022-11-06T01:47:32;101158.56;;;8.68;83.09
60715;BME280;46564;53.096;8.246;2022-11-06T01:52:33;101147.38;;;8.72;83.07
60715;BME280;46564;53.096;8.246;2022-11-06T01:57:35;101154.25;;;8.70;83.09
60715;BME280;46564;53.096;8.246;2022-11-06T02:02:37;101142.94;;;8.70;82.75
60715;BME280;46564;53.096;8.246;2022-11-06T02:07:41;101139.47;;;8.71;82.92
60715;BME280;46564;53.096;8.246;2022-11-06T02:23:57;101112.66;;;8.76;82.29
60715;BME280;46564;53.096;8.246;2022-11-06T02:29:07;101129.16;;;8.74;82.34
60715;BME280;46564;53.096;8.246;2022-11-06T02:34:12;101125.59;;;8.72;82.22
60715;BME280;46564;53.096;8.246;2022-11-06T02:39:16;101111.69;;;8.73;82.36
60715;BME280;46564;53.096;8.246;2022-11-06T02:44:23;101115.22;;;8.75;82.02
60715;BME280;46564;53.096;8.246;2022-11-06T02:49:52;101103.66;;;8.65;82.09
60715;BME280;46564;53.096;8.246;2022-11-06T02:55:12;101099.22;;;8.62;82.01
60715;BME280;46564;53.096;8.246;2022-11-06T03:00:15;101101.78;;;8.61;82.18
60715;BME280;46564;53.096;8.246;2022-11-06T03:05:33;101095.59;;;8.57;82.21
60715;BME280;46564;53.096;8.246;2022-11-06T03:10:46;101083.19;;;8.50;82.29
60715;BME280;46564;53.096;8.246;2022-11-06T03:16:05;101084.63;;;8.42;82.41
60715;BME280;46564;53.096;8.246;2022-11-06T03:21:22;101086.22;;;8.37;82.60
60715;BME280;46564;53.096;8.246;2022-11-06T03:26:31;101088.00;;;8.38;82.44
60715;BME280;46564;53.096;8.246;2022-11-06T03:31:39;101086.22;;;8.37;82.67
60715;BME280;46564;53.096;8.246;2022-11-06T03:36:50;101074.91;;;8.36;82.47
60715;BME280;46564;53.096;8.246;2022-11-06T03:42:05;101076.50;;;8.32;82.49
60715;BME280;46564;53.096;8.246;2022-11-06T03:52:21;101067.78;;;8.30;82.76
60715;BME280;46564;53.096;8.246;2022-11-06T03:57:38;101070.38;;;8.30;82.82
60715;BME280;46564;53.096;8.246;2022-11-06T04:02:44;101079.00;;;8.28;82.85
60715;BME280;46564;53.096;8.246;2022-11-06T04:07:51;101080.78;;;8.29;83.25
60715;BME280;46564;53.096;8.246;2022-11-06T04:13:17;101076.41;;;8.29;83.37
60715;BME280;46564;53.096;8.246;2022-11-06T04:18:39;101082.03;;;8.14;83.66
60715;BME280;46564;53.096;8.246;2022-11-06T04:23:51;101081.63;;;8.01;84.50
60715;BME280;46564;53.096;8.246;2022-11-06T04:40:10;101079.28;;;8.10;85.15
60715;BME280;46564;53.096;8.246;2022-11-06T04:45:19;101082.13;;;8.18;85.19
60715;BME280;46564;53.096;8.246;2022-11-06T04:50:25;101081.44;;;8.23;85.04
60715;BME280;46564;53.096;8.246;2022-11-06T04:55:28;101076.38;;;8.28;84.82
60715;BME280;46564;53.096;8.246;2022-11-06T05:00:30;101080.00;;;8.33;84.75
60715;BME280;46564;53.096;8.246;2022-11-06T05:05:32;101070.38;;;8.30;84.79
60715;BME280;46564;53.096;8.246;2022-11-06T05:10:33;101077.06;;;8.22;85.12
60715;BME280;46564;53.096;8.246;2022-11-06T05:15:35;101084.56;;;8.11;85.51
60715;BME280;46564;53.096;8.246;2022-11-06T05:20:36;101073.09;;;8.06;86.07
60715;BME280;46564;53.096;8.246;2022-11-06T05:25:38;101077.41;;;8.06;86.52
60715;BME280;46564;53.096;8.246;2022-11-06T05:30:40;101072.06;;;8.01;87.08
60715;BME280;46564;53.096;8.246;2022-11-06T05:35:42;101073.50;;;7.91;87.50
60715;BME280;46564;53.096;8.246;2022-11-06T05:40:43;101056.78;;;7.86;87.77
60715;BME280;46564;53.096;8.246;2022-11-06T05:45:45;101058.72;;;7.92;88.17
60715;BME280;46564;53.096;8.246;2022-11-06T05:50:46;101057.91;;;7.93;88.23
60715;BME280;46564;53.096;8.246;2022-11-06T05:55:51;101051.25;;;8.03;88.27
60715;BME280;46564;53.096;8.246;2022-11-06T06:00:56;101034.03;;;8.08;87.91
60715;BME280;46564;53.096;8.246;2022-11-06T06:05:57;101042.22;;;8.20;87.74
60715;BME280;46564;53.096;8.246;2022-11-06T06:10:59;101043.19;;;8.24;87.13
60715;BME280;46564;53.096;8.246;2022-11-06T06:16:01;101026.94;;;8.32;86.82
60715;BME280;46564;53.096;8.246;2022-11-06T06:21:03;101032.44;;;8.42;86.40
60715;BME280;46564;53.096;8.246;2022-11-06T06:26:11;101019.28;;;8.39;86.04
60715;BME280;46564;53.096;8.246;2022-11-06T06:31:13;101019.25;;;8.37;85.86
60715;BME280;46564;53.096;8.246;2022-11-06T06:36:14;101027.97;;;8.38;85.80
60715;BME280;46564;53.096;8.246;2022-11-06T06:41:16;101035.91;;;8.41;85.82
60715;BME280;46564;53.096;8.246;2022-11-06T06:46:18;101048.00;;;8.39;85.58
60715;BME280;46564;53.096;8.246;2022-11-06T06:51:19;101044.44;;;8.35;85.60
60715;BME280;46564;53.096;8.246;2022-11-06T06:56:27;101041.31;;;8.18;85.97
60715;BME280;46564;53.096;8.246;2022-11-06T07:01:37;101046.97;;;8.05;86.62
60715;BME280;46564;53.096;8.246;2022-11-06T07:06:50;101056.06;;;7.90;87.31
60715;BME280;46564;53.096;8.246;2022-11-06T07:12:02;101054.94;;;7.82;88.08
60715;BME280;46564;53.096;8.246;2022-11-06T07:17:10;101055.94;;;7.86;88.50
60715;BME280;46564;53.096;8.246;2022-11-06T07:22:46;101050.13;;;7.94;88.90
60715;BME280;46564;53.096;8.246;2022-11-06T07:28:35;101053.03;;;8.04;88.93
60715;BME280;46564;53.096;8.246;2022-11-06T07:41:12;101038.97;;;8.27;88.25
60715;BME280;46564;53.096;8.246;2022-11-06T07:47:19;101039.28;;;8.38;87.80
60715;BME280;46564;53.096;8.246;2022-11-06T07:53:53;101034.56;;;9.86;86.90
60715;BME280;46564;53.096;8.246;2022-11-06T07:59:43;101031.13;;;12.80;83.61
60715;BME280;46564;53.096;8.246;2022-11-06T08:06:25;101044.34;;;11.64;77.56
60715;BME280;46564;53.096;8.246;2022-11-06T08:13:02;101046.91;;;9.55;78.89
60715;BME280;46564;53.096;8.246;2022-11-06T08:19:47;101037.19;;;9.16;80.68
60715;BME280;46564;53.096;8.246;2022-11-06T08:25:52;101029.25;;;9.13;81.46
60715;BME280;46564;53.096;8.246;2022-11-06T08:37:58;101014.94;;;9.32;82.46
60715;BME280;46564;53.096;8.246;2022-11-06T08:43:49;101021.16;;;9.35;82.35
60715;BME280;46564;53.096;8.246;2022-11-06T08:49:14;101011.63;;;9.39;82.48
60715;BME280;46564;53.096;8.246;2022-11-06T08:54:52;101003.25;;;9.52;82.14
60715;BME280;46564;53.096;8.246;2022-11-06T09:00:20;100985.34;;;9.69;82.07
60715;BME280;46564;53.096;8.246;2022-11-06T09:05:48;100991.78;;;9.82;82.01
60715;BME280;46564;53.096;8.246;2022-11-06T09:11:22;100975.31;;;9.86;81.60
60715;BME280;46564;53.096;8.246;2022-11-06T09:16:56;100973.00;;;10.00;81.57
60715;BME280;46564;53.096;8.246;2022-11-06T09:22:04;100975.94;;;10.16;81.32
60715;BME280;46564;53.096;8.246;2022-11-06T09:27:17;100973.53;;;10.25;81.17
60715;BME280;46564;53.096;8.246;2022-11-06T09:32:22;100983.16;;;10.26;80.92
60715;BME280;46564;53.096;8.246;2022-11-06T09:37:24;100986.56;;;10.22;80.73
60715;BME280;46564;53.096;8.246;2022-11-06T09:48:06;100983.28;;;10.32;80.38
60715;BME280;46564;53.096;8.246;2022-11-06T09:58:37;100973.31;;;10.54;80.07
60715;BME280;46564;53.096;8.246;2022-11-06T10:03:55;100956.44;;;10.87;79.50
60715;BME280;46564;53.096;8.246;2022-11-06T10:09:00;100940.28;;;11.09;78.93
60715;BME280;46564;53.096;8.246;2022-11-06T10:14:10;100936.88;;;11.15;78.48
60715;BME280;46564;53.096;8.246;2022-11-06T10:30:13;100924.34;;;10.99;77.63
60715;BME280;46564;53.096;8.246;2022-11-06T10:35:33;100930.31;;;10.90;77.73
60715;BME280;46564;53.096;8.246;2022-11-06T10:40:36;100923.25;;;10.84;77.83
60715;BME280;46564;53.096;8.246;2022-11-06T10:45:40;100932.84;;;10.85;77.92
60715;BME280;46564;53.096;8.246;2022-11-06T10:50:55;100919.13;;;10.99;77.95
60715;BME280;46564;53.096;8.246;2022-11-06T11:01:13;100913.59;;;11.32;77.43
60715;BME280;46564;53.096;8.246;2022-11-06T11:06:15;100907.00;;;11.62;77.42
60715;BME280;46564;53.096;8.246;2022-11-06T11:16:36;100911.44;;;12.29;76.10
60715;BME280;46564;53.096;8.246;2022-11-06T11:22:04;100907.25;;;12.43;75.40
60715;BME280;46564;53.096;8.246;2022-11-06T11:27:12;100890.88;;;12.69;75.12
60715;BME280;46564;53.096;8.246;2022-11-06T11:32:19;100881.09;;;12.54;74.38
60715;BME280;46564;53.096;8.246;2022-11-06T11:37:27;100876.63;;;12.44;74.48
60715;BME280;46564;53.096;8.246;2022-11-06T11:42:33;100866.00;;;12.34;74.20
60715;BME280;46564;53.096;8.246;2022-11-06T11:47:37;100852.81;;;12.28;74.21
60715;BME280;46564;53.096;8.246;2022-11-06T11:52:39;100846.56;;;12.18;74.25
60715;BME280;46564;53.096;8.246;2022-11-06T11:57:44;100844.75;;;12.14;74.18
60715;BME280;46564;53.096;8.246;2022-11-06T12:02:49;100844.69;;;12.07;73.97
60715;BME280;46564;53.096;8.246;2022-11-06T12:07:54;100837.66;;;12.04;73.99
60715;BME280;46564;53.096;8.246;2022-11-06T12:12:58;100830.59;;;11.97;74.11
60715;BME280;46564;53.096;8.246;2022-11-06T12:18:05;100819.19;;;11.98;74.43
60715;BME280;46564;53.096;8.246;2022-11-06T12:23:27;100810.56;;;12.08;74.29
60715;BME280;46564;53.096;8.246;2022-11-06T12:28:31;100797.84;;;12.45;74.12
60715;BME280;46564;53.096;8.246;2022-11-06T12:33:37;100791.59;;;12.34;73.53
60715;BME280;46564;53.096;8.246;2022-11-06T12:39:03;100785.25;;;12.10;73.33
60715;BME280;46564;53.096;8.246;2022-11-06T12:44:11;100779.00;;;12.00;73.69
60715;BME280;46564;53.096;8.246;2022-11-06T12:54:44;100760.66;;;12.02;73.70
60715;BME280;46564;53.096;8.246;2022-11-06T13:00:10;100754.50;;;12.00;73.82
60715;BME280;46564;53.096;8.246;2022-11-06T13:05:29;100718.72;;;12.08;73.81
60715;BME280;46564;53.096;8.246;2022-11-06T13:16:18;100690.88;;;12.26;73.65
60715;BME280;46564;53.096;8.246;2022-11-06T13:27:09;100682.19;;;12.33;73.84
60715;BME280;46564;53.096;8.246;2022-11-06T13:32:19;100667.34;;;12.38;73.37
60715;BME280;46564;53.096;8.246;2022-11-06T13:37:34;100661.31;;;12.50;73.42
60715;BME280;46564;53.096;8.246;2022-11-06T13:42:42;100663.09;;;12.54;73.23
60715;BME280;46564;53.096;8.246;2022-11-06T13:53:44;100669.22;;;12.54;73.24
60715;BME280;46564;53.096;8.246;2022-11-06T14:09:36;100627.69;;;11.99;73.46
60715;BME280;46564;53.096;8.246;2022-11-06T14:14:41;100634.59;;;11.93;73.62
60715;BME280;46564;53.096;8.246;2022-11-06T14:24:52;100627.31;;;11.64;73.78
60715;BME280;46564;53.096;8.246;2022-11-06T14:35:46;100630.69;;;11.52;74.22
60715;BME280;46564;53.096;8.246;2022-11-06T14:40:49;100623.56;;;11.40;74.43
60715;BME280;46564;53.096;8.246;2022-11-06T14:51:03;100632.09;;;11.24;74.75
60715;BME280;46564;53.096;8.246;2022-11-06T14:56:09;100640.78;;;11.20;74.76
60715;BME280;46564;53.096;8.246;2022-11-06T15:01:14;100633.72;;;11.11;74.86
60715;BME280;46564;53.096;8.246;2022-11-06T15:27:23;100635.88;;;10.77;75.36
60715;BME280;46564;53.096;8.246;2022-11-06T15:32:30;100647.09;;;10.68;75.40
60715;BME280;46564;53.096;8.246;2022-11-06T15:37:44;100632.22;;;10.67;75.53
60715;BME280;46564;53.096;8.246;2022-11-06T15:42:46;100623.59;;;10.73;75.24
60715;BME280;46564;53.096;8.246;2022-11-06T15:47:53;100603.47;;;10.70;75.29
60715;BME280;46564;53.096;8.246;2022-11-06T16:03:20;100585.06;;;10.64;74.70
60715;BME280;46564;53.096;8.246;2022-11-06T16:08:24;100585.94;;;10.63;74.54
60715;BME280;46564;53.096;8.246;2022-11-06T16:13:26;100584.16;;;10.60;74.47
60715;BME280;46564;53.096;8.246;2022-11-06T16:18:37;100568.31;;;10.51;74.31
60715;BME280;46564;53.096;8.246;2022-11-06T16:24:00;100566.50;;;10.46;74.30
60715;BME280;46564;53.096;8.246;2022-11-06T16:29:21;100559.47;;;10.44;74.38
60715;BME280;46564;53.096;8.246;2022-11-06T16:39:50;100560.25;;;10.36;74.17
60715;BME280;46564;53.096;8.246;2022-11-06T16:45:18;100538.31;;;10.29;74.16
60715;BME280;46564;53.096;8.246;2022-11-06T16:50:43;100543.38;;;10.18;74.25
60715;BME280;46564;53.096;8.246;2022-11-06T16:55:53;100543.44;;;10.21;74.24
60715;BME280;46564;53.096;8.246;2022-11-06T17:01:02;100543.41;;;10.20;74.31
60715;BME280;46564;53.096;8.246;2022-11-06T17:06:04;100533.72;;;10.14;74.27
60715;BME280;46564;53.096;8.246;2022-11-06T17:16:15;100527.59;;;10.11;74.21
60715;BME280;46564;53.096;8.246;2022-11-06T17:21:22;100524.09;;;10.13;74.11
60715;BME280;46564;53.096;8.246;2022-11-06T17:26:30;100509.25;;;10.09;74.00
60715;BME280;46564;53.096;8.246;2022-11-06T17:31:32;100501.38;;;10.07;73.96
60715;BME280;46564;53.096;8.246;2022-11-06T17:36:36;100502.19;;;10.05;73.91
60715;BME280;46564;53.096;8.246;2022-11-06T17:41:38;100505.59;;;9.99;74.12
60715;BME280;46564;53.096;8.246;2022-11-06T17:46:44;100497.78;;;10.02;74.06
60715;BME280;46564;53.096;8.246;2022-11-06T17:51:46;100495.97;;;9.98;74.33
60715;BME280;46564;53.096;8.246;2022-11-06T17:56:54;100489.91;;;9.99;74.16
60715;BME280;46564;53.096;8.246;2022-11-06T18:01:57;100479.44;;;9.99;74.24
60715;BME280;46564;53.096;8.246;2022-11-06T18:06:58;100490.66;;;9.92;74.47
60715;BME280;46564;53.096;8.246;2022-11-06T18:12:08;100487.19;;;9.91;74.44
60715;BME280;46564;53.096;8.246;2022-11-06T18:17:10;100461.75;;;9.81;74.87
60715;BME280;46564;53.096;8.246;2022-11-06T18:22:11;100466.06;;;9.78;75.32
60715;BME280;46564;53.096;8.246;2022-11-06T18:27:13;100451.94;;;9.68;75.95
60715;BME280;46564;53.096;8.246;2022-11-06T18:32:14;100457.75;;;9.48;76.73
60715;BME280;46564;53.096;8.246;2022-11-06T18:43:25;100437.97;;;9.11;79.28
60715;BME280;46564;53.096;8.246;2022-11-06T18:55:52;100428.38;;;8.62;81.68
60715;BME280;46564;53.096;8.246;2022-11-06T19:01:49;100421.16;;;8.49;82.91
60715;BME280;46564;53.096;8.246;2022-11-06T19:07:03;100414.84;;;8.38;83.63
60715;BME280;46564;53.096;8.246;2022-11-06T19:13:34;100410.00;;;8.15;84.38
60715;BME280;46564;53.096;8.246;2022-11-06T19:19:25;100416.81;;;8.08;85.22
60715;BME280;46564;53.096;8.246;2022-11-06T19:25:34;100413.09;;;7.97;85.61
60715;BME280;46564;53.096;8.246;2022-11-06T19:31:48;100397.16;;;7.83;86.34
60715;BME280;46564;53.096;8.246;2022-11-06T19:37:51;100398.75;;;7.76;86.66
60715;BME280;46564;53.096;8.246;2022-11-06T19:43:16;100393.28;;;7.64;86.83
60715;BME280;46564;53.096;8.246;2022-11-06T19:48:34;100384.25;;;7.50;87.37
60715;BME280;46564;53.096;8.246;2022-11-06T19:53:45;100372.97;;;7.49;87.77
60715;BME280;46564;53.096;8.246;2022-11-06T19:58:53;100372.03;;;7.47;88.11
60715;BME280;46564;53.096;8.246;2022-11-06T20:05:15;100351.06;;;7.41;88.22
60715;BME280;46564;53.096;8.246;2022-11-06T20:17:13;100380.31;;;7.31;88.39
60715;BME280;46564;53.096;8.246;2022-11-06T20:29:46;100389.69;;;7.22;88.70
60715;BME280;46564;53.096;8.246;2022-11-06T20:34:47;100388.03;;;7.26;88.57
60715;BME280;46564;53.096;8.246;2022-11-06T20:39:49;100390.63;;;7.26;88.34
60715;BME280;46564;53.096;8.246;2022-11-06T20:44:52;100384.75;;;7.33;88.40
60715;BME280;46564;53.096;8.246;2022-11-06T20:49:53;100369.25;;;7.39;87.92
60715;BME280;46564;53.096;8.246;2022-11-06T20:54:55;100366.69;;;7.41;87.73
60715;BME280;46564;53.096;8.246;2022-11-06T20:59:57;100351.94;;;7.43;87.51
60715;BME280;46564;53.096;8.246;2022-11-06T21:04:58;100364.22;;;7.47;87.11
60715;BME280;46564;53.096;8.246;2022-11-06T21:10:00;100369.50;;;7.50;87.11
60715;BME280;46564;53.096;8.246;2022-11-06T21:15:03;100378.25;;;7.52;86.55
60715;BME280;46564;53.096;8.246;2022-11-06T21:20:05;100370.56;;;7.58;86.14
60715;BME280;46564;53.096;8.246;2022-11-06T21:25:07;100354.28;;;7.69;85.66
60715;BME280;46564;53.096;8.246;2022-11-06T21:30:09;100356.09;;;7.73;85.21
60715;BME280;46564;53.096;8.246;2022-11-06T21:35:10;100342.28;;;7.77;84.76
60715;BME280;46564;53.096;8.246;2022-11-06T21:40:12;100347.66;;;7.85;84.41
60715;BME280;46564;53.096;8.246;2022-11-06T21:45:18;100331.34;;;7.93;83.80
60715;BME280;46564;53.096;8.246;2022-11-06T21:50:19;100327.19;;;8.02;83.23
60715;BME280;46564;53.096;8.246;2022-11-06T21:55:30;100339.38;;;8.04;83.18
60715;BME280;46564;53.096;8.246;2022-11-06T22:00:54;100353.50;;;8.14;82.82
60715;BME280;46564;53.096;8.246;2022-11-06T22:06:03;100349.34;;;8.25;82.27
60715;BME280;46564;53.096;8.246;2022-11-06T22:11:19;100351.31;;;8.37;81.83
60715;BME280;46564;53.096;8.246;2022-11-06T22:16:31;100348.03;;;8.46;81.96
60715;BME280;46564;53.096;8.246;2022-11-06T22:21:33;100334.28;;;8.55;81.29
60715;BME280;46564;53.096;8.246;2022-11-06T22:26:35;100343.09;;;8.61;81.17
60715;BME280;46564;53.096;8.246;2022-11-06T22:31:37;100348.38;;;8.64;81.09
60715;BME280;46564;53.096;8.246;2022-11-06T22:36:40;100352.75;;;8.65;80.97
60715;BME280;46564;53.096;8.246;2022-11-06T22:41:41;100360.59;;;8.67;81.18
60715;BME280;46564;53.096;8.246;2022-11-06T22:46:43;100363.31;;;8.73;81.26
60715;BME280;46564;53.096;8.246;2022-11-06T22:51:45;100367.81;;;8.80;81.41
60715;BME280;46564;53.096;8.246;2022-11-06T22:56:48;100378.28;;;8.83;81.55
60715;BME280;46564;53.096;8.246;2022-11-06T23:01:50;100367.03;;;8.86;81.73
60715;BME280;46564;53.096;8.246;2022-11-06T23:06:51;100354.91;;;8.90;82.23
60715;BME280;46564;53.096;8.246;2022-11-06T23:11:53;100373.22;;;8.93;82.35
60715;BME280;46564;53.096;8.246;2022-11-06T23:16:54;100371.63;;;8.99;82.73
60715;BME280;46564;53.096;8.246;2022-11-06T23:22:00;100368.97;;;8.96;83.20
60715;BME280;46564;53.096;8.246;2022-11-06T23:27:20;100360.28;;;9.00;83.40
60715;BME280;46564;53.096;8.246;2022-11-06T23:32:22;100368.13;;;9.00;83.65
60715;BME280;46564;53.096;8.246;2022-11-06T23:37:24;100365.59;;;9.05;83.71
60715;BME280;46564;53.096;8.246;2022-11-06T23:42:26;100376.06;;;9.07;83.95
60715;BME280;46564;53.096;8.246;2022-11-06T23:47:28;100376.22;;;9.14;84.04
60715;BME280;46564;53.096;8.246;2022-11-06T23:52:29;100374.56;;;9.21;84.11
60715;BME280;46564;53.096;8.246;2022-11-06T23:57:31;100379.78;;;9.21;84.13
